Time;durP1;ratioP1;P1;durP2;ratioP2;P2;SDS_P1;SDS_P2;PMS_P1;PMS_P2;Temp;Humidity;BMP_temperature;BMP_pressure;BME280_temperature;BME280_humidity;BME280_pressure;Samples;Min_cycle;Max_cycle;Signal;HPM_P1;HPM_P2
2021/06/24 00:01:01;;;;;;;3.30;2.10;;;;;;;;;;5078924;28;20768;-37
2021/06/24 00:03:29;;;;;;;5.80;2.40;;;;;;;;;;5088413;28;20050;-37
2021/06/24 00:05:56;;;;;;;2.90;1.98;;;;;;;;;;5090524;28;20044;-38
2021/06/24 00:08:24;;;;;;;5.28;2.30;;;;;;;;;;5066327;28;20106;-38
2021/06/24 00:10:51;;;;;;;3.22;1.80;;;;;;;;;;5089715;28;20070;-38
2021/06/24 00:13:19;;;;;;;2.88;2.08;;;;;;;;;;5075659;28;20048;-38
2021/06/24 00:15:46;;;;;;;4.82;1.95;;;;;;;;;;5088867;28;20048;-38
2021/06/24 00:18:13;;;;;;;3.63;2.13;;;;;;;;;;5087823;28;20057;-38
2021/06/24 00:20:40;;;;;;;4.05;2.20;;;;;;;;;;5091401;28;20435;-38
2021/06/24 00:23:07;;;;;;;5.18;2.05;;;;;;;;;;5084306;28;20052;-38
2021/06/24 00:25:34;;;;;;;5.15;2.47;;;;;;;;;;5091410;28;20097;-38
2021/06/24 00:28:01;;;;;;;3.85;1.73;;;;;;;;;;5070183;28;20496;-38
2021/06/24 00:30:28;;;;;;;3.92;2.40;;;;;;;;;;5088958;28;20151;-38
2021/06/24 00:32:56;;;;;;;2.95;2.30;;;;;;;;;;5089415;28;20040;-38
2021/06/24 00:35:23;;;;;;;5.32;2.58;;;;;;;;;;5092307;28;20123;-38
2021/06/24 00:37:50;;;;;;;4.90;2.60;;;;;;;;;;5091293;28;20054;-38
2021/06/24 00:40:17;;;;;;;3.38;2.42;;;;;;;;;;5069349;28;20110;-39
2021/06/24 00:42:44;;;;;;;4.80;2.40;;;;;;;;;;5087719;28;20052;-38
2021/06/24 00:45:12;;;;;;;5.45;2.75;;;;;;;;;;5092282;28;20113;-38
2021/06/24 00:47:39;;;;;;;5.55;2.72;;;;;;;;;;5083688;28;20204;-38
2021/06/24 00:50:07;;;;;;;4.60;2.72;;;;;;;;;;5072585;28;20055;-38
2021/06/24 00:52:34;;;;;;;4.28;2.70;;;;;;;;;;5082710;28;20044;-38
2021/06/24 00:55:02;;;;;;;4.18;2.47;;;;;;;;;;5089706;28;20393;-38
2021/06/24 00:57:42;;;;;;;4.10;2.60;;;;;;;;;;5072883;28;20048;-38
2021/06/24 01:00:09;;;;;;;4.55;2.40;;;;;;;;;;5084537;28;20044;-38
2021/06/24 01:02:38;;;;;;;3.38;2.47;;;;;;;;;;5070312;28;20047;-38
2021/06/24 01:05:05;;;;;;;6.65;2.92;;;;;;;;;;5090916;28;20078;-38
2021/06/24 01:07:32;;;;;;;4.85;3.10;;;;;;;;;;5085318;28;20040;-37
2021/06/24 01:10:17;;;;;;;5.65;3.40;;;;;;;;;;5084349;28;20051;-38
2021/06/24 01:12:44;;;;;;;6.05;3.05;;;;;;;;;;5089188;28;20127;-38
2021/06/24 01:15:11;;;;;;;3.78;2.88;;;;;;;;;;5089802;28;20133;-37
2021/06/24 01:17:39;;;;;;;5.15;3.40;;;;;;;;;;5084132;28;20584;-37
2021/06/24 01:20:06;;;;;;;3.85;3.00;;;;;;;;;;5086170;28;20044;-37
2021/06/24 01:22:34;;;;;;;3.38;2.65;;;;;;;;;;5079766;28;20825;-38
2021/06/24 01:25:05;;;;;;;4.18;2.92;;;;;;;;;;5086782;28;20455;-38
2021/06/24 01:27:32;;;;;;;4.55;3.00;;;;;;;;;;5088922;28;20079;-38
2021/06/24 01:29:59;;;;;;;5.05;3.17;;;;;;;;;;5086151;28;20135;-36
2021/06/24 01:32:29;;;;;;;4.18;2.67;;;;;;;;;;5084830;28;20052;-37
2021/06/24 01:34:56;;;;;;;6.35;2.38;;;;;;;;;;5089851;28;20378;-37
2021/06/24 01:37:23;;;;;;;3.45;1.98;;;;;;;;;;5069980;28;20048;-37
2021/06/24 01:39:51;;;;;;;2.67;2.10;;;;;;;;;;5068050;28;20044;-37
2021/06/24 01:42:19;;;;;;;2.90;1.60;;;;;;;;;;5072332;28;20055;-37
2021/06/24 01:44:46;;;;;;;3.40;1.90;;;;;;;;;;5073272;28;20143;-37
2021/06/24 01:47:13;;;;;;;2.58;1.83;;;;;;;;;;5071247;28;20044;-37
2021/06/24 01:49:40;;;;;;;3.10;2.10;;;;;;;;;;5071286;28;20048;-37
2021/06/24 01:52:07;;;;;;;3.60;1.80;;;;;;;;;;5081977;28;20127;-36
2021/06/24 01:54:34;;;;;;;3.20;2.10;;;;;;;;;;5065550;28;20044;-36
2021/06/24 01:57:01;;;;;;;6.82;3.00;;;;;;;;;;5068066;28;20389;-36
2021/06/24 01:59:29;;;;;;;5.88;2.25;;;;;;;;;;5074569;28;20086;-37
2021/06/24 02:02:06;;;;;;;3.67;1.85;;;;;;;;;;5087360;28;20141;-37
2021/06/24 02:05:05;;;;;;;3.15;1.83;;;;;;;;;;5082951;28;20044;-37
2021/06/24 02:07:39;;;;;;;2.97;2.00;;;;;;;;;;5090974;28;20052;-36
2021/06/24 02:10:33;;;;;;;3.05;2.13;;;;;;;;;;5065936;28;20045;-37
2021/06/24 02:13:02;;;;;;;4.35;2.10;;;;;;;;;;5089834;28;20048;-36
2021/06/24 02:15:29;;;;;;;4.40;2.30;;;;;;;;;;5088292;28;20055;-37
2021/06/24 02:18:07;;;;;;;4.88;2.00;;;;;;;;;;5095606;28;20451;-36
2021/06/24 02:20:39;;;;;;;5.32;1.90;;;;;;;;;;5074918;28;20040;-36
2021/06/24 02:23:28;;;;;;;3.38;1.90;;;;;;;;;;5075606;28;20450;-37
2021/06/24 02:26:05;;;;;;;2.78;1.70;;;;;;;;;;5064386;28;20048;-37
2021/06/24 02:28:43;;;;;;;4.68;2.40;;;;;;;;;;5098914;28;20056;-36
2021/06/24 02:31:13;;;;;;;3.22;1.92;;;;;;;;;;5099543;28;20112;-38
2021/06/24 02:33:41;;;;;;;2.20;1.63;;;;;;;;;;5102240;28;20051;-38
2021/06/24 02:36:23;;;;;;;2.80;2.00;;;;;;;;;;5082375;28;20184;-38
2021/06/24 02:38:50;;;;;;;2.95;1.80;;;;;;;;;;5098669;28;20037;-38
2021/06/24 02:41:17;;;;;;;2.83;1.88;;;;;;;;;;5101047;28;20044;-37
2021/06/24 02:43:44;;;;;;;2.28;1.70;;;;;;;;;;5081665;28;20079;-37
2021/06/24 02:46:14;;;;;;;3.53;1.70;;;;;;;;;;5080254;28;20055;-37
2021/06/24 02:48:46;;;;;;;3.95;2.20;;;;;;;;;;5079626;28;20056;-38
2021/06/24 02:51:16;;;;;;;2.63;1.48;;;;;;;;;;5096821;28;20059;-38
2021/06/24 02:53:58;;;;;;;3.50;1.75;;;;;;;;;;5083034;28;20039;-38
2021/06/24 02:56:25;;;;;;;2.63;1.98;;;;;;;;;;5096824;28;20660;-38
2021/06/24 02:58:55;;;;;;;3.10;2.00;;;;;;;;;;5100502;28;20040;-38
2021/06/24 03:01:29;;;;;;;2.40;1.83;;;;;;;;;;5077982;28;20052;-38
2021/06/24 03:04:11;;;;;;;2.60;2.10;;;;;;;;;;5096756;28;20059;-37
2021/06/24 03:06:41;;;;;;;3.17;2.10;;;;;;;;;;5079090;28;20044;-37
2021/06/24 03:09:07;;;;;;;2.75;1.70;;;;;;;;;;5092241;28;20048;-37
2021/06/24 03:11:39;;;;;;;2.88;1.80;;;;;;;;;;5067666;28;20055;-38
2021/06/24 03:14:08;;;;;;;3.58;2.15;;;;;;;;;;5100424;28;20095;-38
2021/06/24 03:16:42;;;;;;;2.92;1.90;;;;;;;;;;5095586;28;20090;-38
2021/06/24 03:19:16;;;;;;;2.53;1.90;;;;;;;;;;5067946;28;20074;-38
2021/06/24 03:21:54;;;;;;;3.05;1.70;;;;;;;;;;5095778;28;20044;-37
2021/06/24 03:24:24;;;;;;;2.10;1.48;;;;;;;;;;5086236;28;20048;-37
2021/06/24 03:26:52;;;;;;;2.33;1.48;;;;;;;;;;5082048;28;20040;-38
2021/06/24 03:29:19;;;;;;;2.55;1.50;;;;;;;;;;5104992;28;20052;-38
2021/06/24 03:31:49;;;;;;;3.25;1.75;;;;;;;;;;5098279;28;20052;-38
2021/06/24 03:34:22;;;;;;;1.80;1.50;;;;;;;;;;5086738;28;20044;-38
2021/06/24 03:36:49;;;;;;;3.72;1.75;;;;;;;;;;5077452;28;20044;-38
2021/06/24 03:39:20;;;;;;;2.70;1.85;;;;;;;;;;5073312;28;20115;-37
2021/06/24 03:41:47;;;;;;;2.33;1.58;;;;;;;;;;5069145;28;20135;-37
2021/06/24 03:44:14;;;;;;;3.35;1.77;;;;;;;;;;5075115;28;20069;-37
2021/06/24 03:46:41;;;;;;;2.85;1.70;;;;;;;;;;5091967;28;20040;-37
2021/06/24 03:49:10;;;;;;;2.92;1.90;;;;;;;;;;5074735;28;20143;-37
2021/06/24 03:51:39;;;;;;;4.47;2.00;;;;;;;;;;5062437;28;20047;-37
2021/06/24 03:54:06;;;;;;;3.65;2.08;;;;;;;;;;5093799;28;20054;-37
2021/06/24 03:56:36;;;;;;;1.90;1.40;;;;;;;;;;5092107;28;20071;-37
2021/06/24 03:59:19;;;;;;;2.08;1.50;;;;;;;;;;5086686;28;20692;-37
2021/06/24 04:01:51;;;;;;;2.35;1.88;;;;;;;;;;5086235;28;20036;-37
2021/06/24 04:04:17;;;;;;;3.00;1.88;;;;;;;;;;5075304;28;20117;-37
2021/06/24 04:06:52;;;;;;;3.65;1.67;;;;;;;;;;5090335;28;20497;-37
2021/06/24 04:09:19;;;;;;;2.55;1.88;;;;;;;;;;5091161;28;20056;-37
2021/06/24 04:11:47;;;;;;;2.40;1.60;;;;;;;;;;5071240;28;20048;-36
2021/06/24 04:14:33;;;;;;;2.17;1.27;;;;;;;;;;5083565;28;20047;-36
2021/06/24 04:17:13;;;;;;;4.07;1.80;;;;;;;;;;5073622;28;20362;-36
2021/06/24 04:19:43;;;;;;;2.28;1.67;;;;;;;;;;5084724;28;20048;-36
2021/06/24 04:22:10;;;;;;;4.55;1.67;;;;;;;;;;5088675;28;20060;-36
2021/06/24 04:25:10;;;;;;;4.72;2.58;;;;;;;;;;5074609;28;20052;-37
2021/06/24 04:27:38;;;;;;;1.75;1.38;;;;;;;;;;5069020;28;20384;-36
2021/06/24 04:30:05;;;;;;;2.53;1.65;;;;;;;;;;5072473;28;20074;-36
2021/06/24 04:32:35;;;;;;;2.60;1.73;;;;;;;;;;5072606;28;20044;-37
2021/06/24 04:35:04;;;;;;;2.65;1.73;;;;;;;;;;5091790;28;20142;-37
2021/06/24 04:37:31;;;;;;;2.35;1.40;;;;;;;;;;5086817;28;20674;-37
2021/06/24 04:39:58;;;;;;;2.63;1.55;;;;;;;;;;5070947;28;20048;-37
2021/06/24 04:42:32;;;;;;;3.50;1.80;;;;;;;;;;5089791;28;20523;-37
2021/06/24 04:45:08;;;;;;;2.47;1.80;;;;;;;;;;5070439;28;20044;-37
2021/06/24 04:47:43;;;;;;;3.65;2.40;;;;;;;;;;5072442;28;20413;-37
2021/06/24 04:50:11;;;;;;;3.08;2.55;;;;;;;;;;5083242;28;20056;-37
2021/06/24 04:52:49;;;;;;;3.17;2.10;;;;;;;;;;5090321;28;20425;-37
2021/06/24 04:55:24;;;;;;;3.60;2.58;;;;;;;;;;5093286;28;20461;-37
2021/06/24 04:57:55;;;;;;;3.92;2.00;;;;;;;;;;5070028;28;20044;-37
2021/06/24 05:00:42;;;;;;;7.22;2.78;;;;;;;;;;5080979;28;20051;-37
2021/06/24 05:03:12;;;;;;;2.85;1.80;;;;;;;;;;5088040;28;20067;-37
2021/06/24 05:06:03;;;;;;;2.85;1.33;;;;;;;;;;5087415;28;20052;-37
2021/06/24 05:08:32;;;;;;;1.95;1.40;;;;;;;;;;5086630;28;20117;-38
2021/06/24 05:10:59;;;;;;;2.60;1.38;;;;;;;;;;5067015;28;20230;-38
2021/06/24 05:13:26;;;;;;;2.17;1.40;;;;;;;;;;5090572;28;20056;-38
2021/06/24 05:15:53;;;;;;;1.85;1.42;;;;;;;;;;5090834;28;20048;-37
2021/06/24 05:18:19;;;;;;;2.08;1.23;;;;;;;;;;5089983;28;20525;-37
2021/06/24 05:20:46;;;;;;;2.83;1.30;;;;;;;;;;5089095;28;20651;-37
2021/06/24 05:23:16;;;;;;;2.55;1.35;;;;;;;;;;5069037;28;20048;-37
2021/06/24 05:25:43;;;;;;;3.65;1.50;;;;;;;;;;5091462;28;20067;-36
2021/06/24 05:28:10;;;;;;;2.38;1.50;;;;;;;;;;5088833;28;20079;-37
2021/06/24 05:30:37;;;;;;;2.40;1.60;;;;;;;;;;5089489;28;20562;-36
2021/06/24 05:33:04;;;;;;;2.90;1.40;;;;;;;;;;5090202;28;20579;-37
2021/06/24 05:35:31;;;;;;;3.38;1.20;;;;;;;;;;5086867;28;20667;-37
2021/06/24 05:37:58;;;;;;;1.33;1.20;;;;;;;;;;5089080;28;20123;-37
2021/06/24 05:40:25;;;;;;;1.60;1.30;;;;;;;;;;5084950;28;20082;-37
2021/06/24 05:42:51;;;;;;;3.10;1.58;;;;;;;;;;5083956;28;20060;-37
2021/06/24 05:45:25;;;;;;;2.03;1.27;;;;;;;;;;5080531;28;20083;-37
2021/06/24 05:47:53;;;;;;;3.13;1.40;;;;;;;;;;5088917;28;20546;-36
2021/06/24 05:50:28;;;;;;;2.28;1.30;;;;;;;;;;5083696;28;20084;-36
2021/06/24 05:52:55;;;;;;;3.78;1.02;;;;;;;;;;5034535;28;20499;-39
2021/06/24 05:55:47;;;;;;;2.30;1.50;;;;;;;;;;5022846;28;20058;-40
2021/06/24 05:58:09;;;;;;;2.55;1.30;;;;;;;;;;5015987;28;20053;-38
2021/06/24 06:00:37;;;;;;;4.18;1.85;;;;;;;;;;5026322;28;20069;-41
2021/06/24 06:03:04;;;;;;;1.88;1.15;;;;;;;;;;5021049;28;20060;-39
2021/06/24 06:05:33;;;;;;;2.15;1.23;;;;;;;;;;5028120;28;20057;-40
2021/06/24 06:08:04;;;;;;;2.80;1.70;;;;;;;;;;5028384;28;20068;-39
2021/06/24 06:10:31;;;;;;;3.20;1.40;;;;;;;;;;5029499;28;20429;-39
2021/06/24 06:12:58;;;;;;;2.25;1.50;;;;;;;;;;5031101;28;21546;-42
2021/06/24 06:15:25;;;;;;;5.05;1.60;;;;;;;;;;5024590;28;20048;-39
2021/06/24 06:17:53;;;;;;;4.30;1.58;;;;;;;;;;5026345;28;20499;-42
2021/06/24 06:20:20;;;;;;;5.55;1.63;;;;;;;;;;5032877;28;20049;-38
2021/06/24 06:22:47;;;;;;;3.28;1.70;;;;;;;;;;5025447;28;20061;-39
2021/06/24 06:25:14;;;;;;;4.00;1.80;;;;;;;;;;5031608;28;20081;-39
2021/06/24 06:27:41;;;;;;;2.53;1.55;;;;;;;;;;5029502;28;20083;-42
2021/06/24 06:30:08;;;;;;;2.83;1.90;;;;;;;;;;5026668;28;20064;-39
2021/06/24 06:32:35;;;;;;;3.40;1.90;;;;;;;;;;5029667;28;20054;-40
2021/06/24 06:35:02;;;;;;;4.47;1.63;;;;;;;;;;5030250;28;20060;-39
2021/06/24 06:37:29;;;;;;;3.50;1.70;;;;;;;;;;5030307;28;20577;-44
2021/06/24 06:39:56;;;;;;;2.67;1.90;;;;;;;;;;5025364;28;20805;-43
2021/06/24 06:42:23;;;;;;;3.25;2.10;;;;;;;;;;5029446;28;20053;-41
2021/06/24 06:44:49;;;;;;;3.58;2.17;;;;;;;;;;5023399;28;20069;-44
2021/06/24 06:47:16;;;;;;;4.25;2.83;;;;;;;;;;5023324;28;20053;-43
2021/06/24 06:49:43;;;;;;;3.92;2.10;;;;;;;;;;5025832;28;20503;-43
2021/06/24 06:52:10;;;;;;;4.18;2.45;;;;;;;;;;5022990;28;20057;-43
2021/06/24 06:54:37;;;;;;;2.78;2.10;;;;;;;;;;5020868;28;20511;-40
2021/06/24 06:57:04;;;;;;;3.33;2.00;;;;;;;;;;5029289;28;20103;-39
2021/06/24 06:59:30;;;;;;;6.10;2.60;;;;;;;;;;5034530;28;20049;-40
2021/06/24 07:02:10;;;;;;;4.90;2.80;;;;;;;;;;5029742;28;20044;-40
2021/06/24 07:04:37;;;;;;;4.15;2.80;;;;;;;;;;5033351;28;20144;-43
2021/06/24 07:07:18;;;;;;;3.13;2.50;;;;;;;;;;5033623;28;20080;-40
2021/06/24 07:09:45;;;;;;;4.55;2.40;;;;;;;;;;5033454;28;20054;-40
2021/06/24 07:12:12;;;;;;;5.20;2.60;;;;;;;;;;5031949;28;20049;-39
2021/06/24 07:14:38;;;;;;;4.72;2.10;;;;;;;;;;5027851;28;20068;-42
2021/06/24 07:17:05;;;;;;;3.90;1.90;;;;;;;;;;5024961;28;20557;-39
2021/06/24 07:19:32;;;;;;;2.65;2.00;;;;;;;;;;5026870;28;20120;-39
2021/06/24 07:21:59;;;;;;;4.22;2.28;;;;;;;;;;5023676;28;20064;-39
2021/06/24 07:24:26;;;;;;;2.42;1.85;;;;;;;;;;5032377;28;20096;-39
2021/06/24 07:26:52;;;;;;;4.28;2.20;;;;;;;;;;5021336;28;20053;-40
2021/06/24 07:29:19;;;;;;;3.45;1.73;;;;;;;;;;5030749;28;20092;-41
2021/06/24 07:31:46;;;;;;;3.30;2.03;;;;;;;;;;5026775;28;20061;-40
2021/06/24 07:34:13;;;;;;;5.22;2.20;;;;;;;;;;5031128;28;20046;-39
2021/06/24 07:36:40;;;;;;;2.00;1.50;;;;;;;;;;5030842;28;20467;-41
2021/06/24 07:39:07;;;;;;;1.90;1.52;;;;;;;;;;5031359;28;20095;-38
2021/06/24 07:41:34;;;;;;;4.95;1.77;;;;;;;;;;5029122;28;20041;-39
2021/06/24 07:44:01;;;;;;;3.35;1.70;;;;;;;;;;5029988;28;20083;-47
2021/06/24 07:46:28;;;;;;;3.42;1.67;;;;;;;;;;5025442;28;20967;-41
2021/06/24 07:48:55;;;;;;;2.85;1.80;;;;;;;;;;5029172;28;20478;-41
2021/06/24 07:51:22;;;;;;;2.95;1.80;;;;;;;;;;5025641;28;21707;-41
2021/06/24 07:53:49;;;;;;;2.40;1.52;;;;;;;;;;5024337;28;20033;-42
2021/06/24 07:56:17;;;;;;;2.97;1.90;;;;;;;;;;5030786;28;20051;-42
2021/06/24 07:58:43;;;;;;;2.22;1.60;;;;;;;;;;5032344;28;20533;-41
2021/06/24 08:01:10;;;;;;;2.03;1.52;;;;;;;;;;5022598;28;20076;-42
2021/06/24 08:03:37;;;;;;;2.20;1.83;;;;;;;;;;5037560;28;20053;-41
2021/06/24 08:06:04;;;;;;;3.83;1.52;;;;;;;;;;5033084;28;20516;-40
2021/06/24 08:08:32;;;;;;;3.17;1.75;;;;;;;;;;5028192;28;20042;-42
2021/06/24 08:10:59;;;;;;;2.05;1.38;;;;;;;;;;5029623;28;20049;-41
2021/06/24 08:13:27;;;;;;;3.28;1.70;;;;;;;;;;5032391;28;20057;-40
2021/06/24 08:15:54;;;;;;;2.83;2.17;;;;;;;;;;5033069;28;20041;-40
2021/06/24 08:18:22;;;;;;;3.58;2.10;;;;;;;;;;5029499;28;20046;-41
2021/06/24 08:20:49;;;;;;;2.80;1.88;;;;;;;;;;5032672;28;20046;-40
2021/06/24 08:23:17;;;;;;;4.32;2.72;;;;;;;;;;5028714;28;20061;-52
2021/06/24 08:25:44;;;;;;;3.22;2.17;;;;;;;;;;5033490;28;20049;-42
2021/06/24 08:28:11;;;;;;;2.45;1.52;;;;;;;;;;5031746;28;20087;-40
2021/06/24 08:30:44;;;;;;;2.53;1.50;;;;;;;;;;5030796;28;20403;-41
2021/06/24 08:33:11;;;;;;;2.75;1.92;;;;;;;;;;5033231;28;20175;-40
2021/06/24 08:35:38;;;;;;;2.88;2.00;;;;;;;;;;5032757;28;20403;-40
2021/06/24 08:38:05;;;;;;;3.50;1.85;;;;;;;;;;5032882;28;20095;-42
2021/06/24 08:40:32;;;;;;;3.08;1.65;;;;;;;;;;5030007;28;20107;-40
2021/06/24 08:42:59;;;;;;;2.33;1.70;;;;;;;;;;5034351;28;20046;-40
2021/06/24 08:45:26;;;;;;;4.10;2.00;;;;;;;;;;5048698;28;20048;-39
2021/06/24 08:47:56;;;;;;;3.45;1.80;;;;;;;;;;5020634;28;20050;-41
2021/06/24 08:50:22;;;;;;;2.78;1.85;;;;;;;;;;5029909;28;20131;-41
2021/06/24 08:52:50;;;;;;;2.85;1.85;;;;;;;;;;5031195;28;20107;-42
2021/06/24 08:55:18;;;;;;;3.30;1.95;;;;;;;;;;5033995;28;20079;-42
2021/06/24 08:57:44;;;;;;;2.33;1.73;;;;;;;;;;5031766;28;20065;-42
2021/06/24 09:00:12;;;;;;;3.40;2.00;;;;;;;;;;5028836;28;20045;-38
2021/06/24 09:02:38;;;;;;;2.67;1.75;;;;;;;;;;5031799;28;20171;-43
2021/06/24 09:05:06;;;;;;;2.95;1.70;;;;;;;;;;5033315;28;20057;-39
2021/06/24 09:07:46;;;;;;;2.60;1.77;;;;;;;;;;5031840;28;20041;-38
2021/06/24 09:10:12;;;;;;;2.72;1.25;;;;;;;;;;5030030;28;20072;-39
2021/06/24 09:12:49;;;;;;;5.25;4.50;;;;;;;;;;5030767;28;20052;-38
2021/06/24 09:15:16;;;;;;;3.28;1.70;;;;;;;;;;5031213;28;20045;-42
2021/06/24 09:17:44;;;;;;;3.22;1.60;;;;;;;;;;5030940;28;20525;-39
2021/06/24 09:20:19;;;;;;;3.10;2.03;;;;;;;;;;5028023;28;20132;-39
2021/06/24 09:23:05;;;;;;;4.47;2.13;;;;;;;;;;5030003;28;20404;-39
2021/06/24 09:25:32;;;;;;;2.22;1.70;;;;;;;;;;5033016;28;20076;-39
2021/06/24 09:27:59;;;;;;;3.75;2.00;;;;;;;;;;5031247;28;20081;-39
2021/06/24 09:30:30;;;;;;;3.67;1.73;;;;;;;;;;5021168;28;20061;-39
2021/06/24 09:33:05;;;;;;;3.58;2.05;;;;;;;;;;5025276;28;20049;-38
2021/06/24 09:35:32;;;;;;;2.97;2.28;;;;;;;;;;5032533;28;20057;-40
2021/06/24 09:38:02;;;;;;;4.38;2.13;;;;;;;;;;5027201;28;20141;-39
2021/06/24 09:40:37;;;;;;;2.58;1.75;;;;;;;;;;5030769;28;20049;-40
2021/06/24 09:43:03;;;;;;;2.03;1.40;;;;;;;;;;5032335;28;20045;-43
2021/06/24 09:45:30;;;;;;;2.90;1.98;;;;;;;;;;5027399;28;20081;-41
2021/06/24 09:48:10;;;;;;;3.35;2.00;;;;;;;;;;5019526;28;20061;-43
2021/06/24 09:50:38;;;;;;;3.50;2.30;;;;;;;;;;5030062;28;20053;-43
2021/06/24 09:53:08;;;;;;;3.10;2.20;;;;;;;;;;5028198;28;20132;-41
2021/06/24 09:55:35;;;;;;;3.30;2.05;;;;;;;;;;5031137;28;20052;-42
2021/06/24 09:58:12;;;;;;;2.63;2.13;;;;;;;;;;5028957;28;20037;-41
2021/06/24 10:00:49;;;;;;;3.00;2.00;;;;;;;;;;5025000;28;20077;-43
2021/06/24 10:03:16;;;;;;;2.50;1.95;;;;;;;;;;5029360;28;20855;-43
2021/06/24 10:05:44;;;;;;;3.30;2.20;;;;;;;;;;5030424;28;20914;-42
2021/06/24 10:08:12;;;;;;;3.50;2.03;;;;;;;;;;5030134;28;20117;-40
2021/06/24 10:10:40;;;;;;;2.42;1.80;;;;;;;;;;5031629;28;20049;-40
2021/06/24 10:13:07;;;;;;;3.33;2.20;;;;;;;;;;5030162;28;20490;-41
2021/06/24 10:15:34;;;;;;;2.60;1.92;;;;;;;;;;5028239;28;20076;-40
2021/06/24 10:18:02;;;;;;;5.05;2.00;;;;;;;;;;5018120;28;20054;-43
2021/06/24 10:20:30;;;;;;;3.58;1.90;;;;;;;;;;5030673;28;20115;-39
2021/06/24 10:22:57;;;;;;;2.17;1.55;;;;;;;;;;5016610;28;20045;-39
2021/06/24 10:25:24;;;;;;;2.47;1.52;;;;;;;;;;5029917;28;20049;-39
2021/06/24 10:27:53;;;;;;;1.63;1.50;;;;;;;;;;5032153;28;20057;-41
2021/06/24 10:30:22;;;;;;;2.45;1.70;;;;;;;;;;5016949;28;20500;-40
2021/06/24 10:33:00;;;;;;;5.35;1.73;;;;;;;;;;5018400;28;20064;-39
2021/06/24 10:35:31;;;;;;;2.03;1.77;;;;;;;;;;5031127;28;20056;-41
2021/06/24 10:38:05;;;;;;;4.90;1.75;;;;;;;;;;5019568;28;20658;-39
2021/06/24 10:40:35;;;;;;;2.35;1.75;;;;;;;;;;5025307;28;20061;-39
2021/06/24 10:43:05;;;;;;;3.80;1.90;;;;;;;;;;5031727;28;20073;-38
2021/06/24 10:45:32;;;;;;;3.75;1.60;;;;;;;;;;5026278;28;20053;-39
2021/06/24 10:48:19;;;;;;;2.38;1.60;;;;;;;;;;5030811;28;20395;-40
2021/06/24 10:50:55;;;;;;;2.10;1.50;;;;;;;;;;5024653;28;20046;-40
2021/06/24 10:53:21;;;;;;;2.67;1.67;;;;;;;;;;5020279;28;20073;-39
2021/06/24 10:55:50;;;;;;;2.03;1.55;;;;;;;;;;5029257;28;20037;-40
2021/06/24 10:58:19;;;;;;;2.63;1.75;;;;;;;;;;5030432;28;20487;-41
2021/06/24 11:00:56;;;;;;;3.33;1.70;;;;;;;;;;5033107;28;20049;-39
2021/06/24 11:03:23;;;;;;;3.40;1.70;;;;;;;;;;5013075;28;20066;-39
2021/06/24 11:05:50;;;;;;;2.95;1.70;;;;;;;;;;5024514;28;20050;-41
2021/06/24 11:08:27;;;;;;;3.63;1.63;;;;;;;;;;5024890;28;20049;-40
2021/06/24 11:10:54;;;;;;;3.22;1.70;;;;;;;;;;5027229;28;20124;-40
2021/06/24 11:13:37;;;;;;;2.58;1.58;;;;;;;;;;5031273;28;20061;-40
2021/06/24 11:16:07;;;;;;;2.15;1.55;;;;;;;;;;5031752;28;20046;-41
2021/06/24 11:18:34;;;;;;;2.53;1.55;;;;;;;;;;5032426;28;20073;-42
2021/06/24 11:21:01;;;;;;;3.75;1.73;;;;;;;;;;5017474;28;20042;-40
2021/06/24 11:23:33;;;;;;;2.45;1.60;;;;;;;;;;5016493;28;20112;-39
2021/06/24 11:26:10;;;;;;;2.90;1.70;;;;;;;;;;5032356;28;20104;-38
2021/06/24 11:28:53;;;;;;;3.72;1.90;;;;;;;;;;5030965;28;20103;-38
2021/06/24 11:31:43;;;;;;;1.52;1.30;;;;;;;;;;5030835;28;20088;-39
2021/06/24 11:34:23;;;;;;;1.95;1.45;;;;;;;;;;5015418;28;20495;-39
2021/06/24 11:36:52;;;;;;;2.95;1.58;;;;;;;;;;5034338;28;20065;-39
2021/06/24 11:39:23;;;;;;;3.55;1.40;;;;;;;;;;5030545;28;20510;-39
2021/06/24 11:41:56;;;;;;;3.17;1.77;;;;;;;;;;5031392;28;20061;-38
2021/06/24 11:44:24;;;;;;;2.38;1.70;;;;;;;;;;5031275;28;20402;-37
2021/06/24 11:46:55;;;;;;;3.60;1.55;;;;;;;;;;5034607;28;20499;-39
2021/06/24 12:03:08;;;;;;;2.88;1.70;;;;;;;;;;5027621;28;20062;-50
2021/06/24 12:05:38;;;;;;;2.40;1.80;;;;;;;;;;5039076;28;20049;-40
2021/06/24 12:08:05;;;;;;;2.72;2.17;;;;;;;;;;5035151;28;20060;-39
2021/06/24 12:10:32;;;;;;;3.35;1.90;;;;;;;;;;5035281;28;20128;-39
2021/06/24 12:12:58;;;;;;;2.53;1.90;;;;;;;;;;5036998;28;20053;-41
2021/06/24 12:15:25;;;;;;;2.63;1.75;;;;;;;;;;5035595;28;20128;-40
2021/06/24 12:17:53;;;;;;;2.85;1.95;;;;;;;;;;5026406;28;20052;-40
2021/06/24 12:20:23;;;;;;;2.55;1.80;;;;;;;;;;5035064;28;20080;-40
2021/06/24 12:22:59;;;;;;;3.70;2.33;;;;;;;;;;5032823;28;20056;-40
2021/06/24 12:25:27;;;;;;;3.55;2.40;;;;;;;;;;5035649;28;20057;-40
2021/06/24 12:27:55;;;;;;;3.30;2.28;;;;;;;;;;5036974;28;20128;-41
2021/06/24 12:30:34;;;;;;;3.47;2.78;;;;;;;;;;5036892;28;20050;-40
2021/06/24 12:33:07;;;;;;;3.70;2.40;;;;;;;;;;5034375;28;20058;-41
2021/06/24 12:35:34;;;;;;;2.95;2.50;;;;;;;;;;5037860;28;20099;-41
2021/06/24 12:38:05;;;;;;;2.95;2.40;;;;;;;;;;5036984;28;20060;-46
2021/06/24 12:40:44;;;;;;;3.47;2.75;;;;;;;;;;5032323;28;20049;-43
2021/06/24 12:43:22;;;;;;;4.38;2.65;;;;;;;;;;5033901;28;20263;-42
2021/06/24 12:45:52;;;;;;;3.97;2.55;;;;;;;;;;5035866;28;20194;-39
2021/06/24 12:48:24;;;;;;;3.08;2.45;;;;;;;;;;5024493;28;20080;-41
2021/06/24 12:50:51;;;;;;;3.67;2.50;;;;;;;;;;5031828;28;20128;-41
2021/06/24 12:53:27;;;;;;;2.75;2.38;;;;;;;;;;5033258;28;20065;-42
2021/06/24 12:55:53;;;;;;;4.57;2.80;;;;;;;;;;5033319;28;20046;-43
2021/06/24 12:58:20;;;;;;;4.05;2.80;;;;;;;;;;5032415;28;20096;-42
2021/06/24 13:00:50;;;;;;;6.00;2.50;;;;;;;;;;5034175;28;20087;-42
2021/06/24 13:03:32;;;;;;;4.03;2.38;;;;;;;;;;5033362;28;20053;-43
2021/06/24 13:06:05;;;;;;;6.20;2.80;;;;;;;;;;5033759;28;20057;-43
2021/06/24 13:08:32;;;;;;;5.10;2.60;;;;;;;;;;5048094;28;20045;-43
2021/06/24 13:11:09;;;;;;;2.72;2.33;;;;;;;;;;5029069;28;20076;-41
2021/06/24 13:13:36;;;;;;;5.53;2.38;;;;;;;;;;5033124;28;20096;-43
2021/06/24 13:16:19;;;;;;;3.35;2.33;;;;;;;;;;5031875;28;20133;-53
2021/06/24 13:18:50;;;;;;;3.40;2.50;;;;;;;;;;5028220;28;20644;-44
2021/06/24 13:21:17;;;;;;;2.95;2.40;;;;;;;;;;5031537;28;20084;-41
2021/06/24 13:23:44;;;;;;;3.00;2.25;;;;;;;;;;5033633;28;20050;-43
2021/06/24 13:26:19;;;;;;;3.10;2.17;;;;;;;;;;5033872;28;20111;-41
2021/06/24 13:28:57;;;;;;;4.10;2.20;;;;;;;;;;5034336;28;20050;-43
2021/06/24 13:31:34;;;;;;;2.25;1.80;;;;;;;;;;5033694;28;20053;-41
2021/06/24 13:34:09;;;;;;;4.43;2.10;;;;;;;;;;5034393;28;20056;-42
2021/06/24 13:36:36;;;;;;;2.15;1.95;;;;;;;;;;5016901;28;20069;-45
2021/06/24 13:39:04;;;;;;;2.50;1.92;;;;;;;;;;5043198;28;20041;-41
2021/06/24 13:41:32;;;;;;;3.80;1.90;;;;;;;;;;5015253;28;20050;-43
2021/06/24 13:44:02;;;;;;;3.38;1.92;;;;;;;;;;5033509;28;20096;-44
2021/06/24 13:46:29;;;;;;;3.35;1.80;;;;;;;;;;5033594;28;20502;-44
2021/06/24 13:48:56;;;;;;;4.13;1.80;;;;;;;;;;5031050;28;20046;-43
2021/06/24 13:51:23;;;;;;;2.33;1.85;;;;;;;;;;5028782;28;20175;-42
2021/06/24 13:53:57;;;;;;;2.53;1.50;;;;;;;;;;5030766;28;20113;-44
2021/06/24 13:56:23;;;;;;;2.30;1.60;;;;;;;;;;5034364;28;20128;-44
2021/06/24 13:58:50;;;;;;;4.60;1.70;;;;;;;;;;5032235;28;20053;-45
2021/06/24 14:01:18;;;;;;;2.15;1.58;;;;;;;;;;5027521;28;20044;-43
2021/06/24 14:03:46;;;;;;;1.88;1.50;;;;;;;;;;5032628;28;20057;-42
2021/06/24 14:06:14;;;;;;;2.60;1.80;;;;;;;;;;5031822;28;20092;-41
2021/06/24 14:08:41;;;;;;;3.85;2.10;;;;;;;;;;5026967;28;20045;-43
2021/06/24 14:11:08;;;;;;;3.83;1.67;;;;;;;;;;5027155;28;20076;-42
2021/06/24 14:13:36;;;;;;;3.38;1.80;;;;;;;;;;5032402;28;20080;-41
2021/06/24 14:16:02;;;;;;;1.90;1.70;;;;;;;;;;5031770;28;20080;-43
2021/06/24 14:18:29;;;;;;;2.70;1.55;;;;;;;;;;5015847;28;20958;-41
2021/06/24 14:20:57;;;;;;;2.20;1.80;;;;;;;;;;5028518;28;20042;-43
2021/06/24 14:23:23;;;;;;;2.47;1.40;;;;;;;;;;5023096;28;20045;-42
2021/06/24 14:25:50;;;;;;;3.20;1.92;;;;;;;;;;5031770;28;20053;-42
2021/06/24 14:28:17;;;;;;;4.22;1.83;;;;;;;;;;5031759;28;20045;-42
2021/06/24 14:30:44;;;;;;;4.10;1.98;;;;;;;;;;5031097;28;20073;-42
2021/06/24 14:33:11;;;;;;;3.45;2.00;;;;;;;;;;5027019;28;20057;-42
2021/06/24 14:35:38;;;;;;;4.15;1.98;;;;;;;;;;5031953;28;20034;-44
2021/06/24 14:38:05;;;;;;;3.42;2.10;;;;;;;;;;5030850;28;20041;-46
2021/06/24 14:40:32;;;;;;;1.63;1.30;;;;;;;;;;5027513;28;20054;-43
2021/06/24 14:43:00;;;;;;;3.25;1.95;;;;;;;;;;5030077;28;20515;-45
2021/06/24 14:45:26;;;;;;;3.97;2.05;;;;;;;;;;5031486;28;20049;-43
2021/06/24 14:47:53;;;;;;;3.90;1.90;;;;;;;;;;5031214;28;20442;-45
2021/06/24 14:50:20;;;;;;;5.30;2.03;;;;;;;;;;5033724;28;20053;-44
2021/06/24 14:52:48;;;;;;;2.40;1.85;;;;;;;;;;5029270;28;20053;-42
2021/06/24 14:55:15;;;;;;;4.10;1.95;;;;;;;;;;5030332;28;20502;-41
2021/06/24 14:57:42;;;;;;;2.40;1.80;;;;;;;;;;5030059;28;20120;-42
2021/06/24 15:00:10;;;;;;;3.08;1.85;;;;;;;;;;5030431;28;20049;-43
2021/06/24 15:02:37;;;;;;;2.58;1.90;;;;;;;;;;5032268;28;20095;-42
2021/06/24 15:05:05;;;;;;;2.70;1.95;;;;;;;;;;5031251;28;20143;-42
2021/06/24 15:07:32;;;;;;;3.75;2.10;;;;;;;;;;5027837;28;20632;-43
2021/06/24 15:09:58;;;;;;;2.25;1.73;;;;;;;;;;5043976;28;20128;-43
2021/06/24 15:12:25;;;;;;;3.50;2.20;;;;;;;;;;5029402;28;20061;-42